Check out our new BloomSky Weather System.

Active alerts


No alerts


Thunder radar  blitzortung!


Rain radar more information rain snow radar


Visit our other weather sites:

Template documentation
and downloads

And another site



Weather Underground History page Text

Daily Summary for July 19, 2017 Units:  Metric    English   Both
« Previous Day
Next Day »
Daily Weekly Monthly Yearly Custom
  High: Low: Average:
Temperature: 36.2 °C 23.8 °C 29.8 °C
Dew Point: 27.6 °C 23.2 °C 25.1 °C
Humidity: 97 % 51 % 77 %
Wind Speed: 17.7 km/h 0 km/h 2.6 km/h
Wind Gust: 22.5 km/h - -
Wind:- - SSE
Pressure: 1020.2 hPa 1016.5 hPa -
Precipitation: 0 mm    
Historical Graphs
 
 
Tabular Data for July 19, 2017
Time Temperature Dew Point Pressure Wind Wind Speed Wind Gust Humidity Rainfall Rate (Hourly)
00:00 26.8 °C 24.5 °C 1017.2 hPa SSE 1.6 km/h 1.6 km/h 87 % 0 mm
00:05 26.8 °C 24.5 °C 1017.5 hPa SSW 1.6 km/h 3.2 km/h 87 % 0 mm
00:10 26.9 °C 24.5 °C 1017.5 hPa SSW 3.2 km/h 3.2 km/h 87 % 0 mm
00:15 26.9 °C 24.5 °C 1017.5 hPa SSE 1.6 km/h 4.8 km/h 87 % 0 mm
00:20 26.8 °C 24.5 °C 1017.5 hPa Calm   4.8 km/h 87 % 0 mm
00:25 26.8 °C 24.5 °C 1017.5 hPa SSW 1.6 km/h 3.2 km/h 87 % 0 mm
00:30 26.8 °C 24.5 °C 1017.5 hPa South 3.2 km/h 3.2 km/h 87 % 0 mm
00:35 26.7 °C 24.5 °C 1017.5 hPa SSW 1.6 km/h 3.2 km/h 88 % 0 mm
00:40 26.7 °C 24.5 °C 1017.5 hPa SSE 1.6 km/h 3.2 km/h 88 % 0 mm
00:45 26.7 °C 24.5 °C 1017.5 hPa Calm   3.2 km/h 88 % 0 mm
00:50 26.7 °C 24.5 °C 1017.8 hPa Calm   3.2 km/h 88 % 0 mm
00:55 26.6 °C 24.4 °C 1017.5 hPa Calm   3.2 km/h 88 % 0 mm
01:00 26.6 °C 24.4 °C 1017.5 hPa SSW 3.2 km/h 4.8 km/h 88 % 0 mm
01:05 26.5 °C 24.5 °C 1017.5 hPa Calm   4.8 km/h 89 % 0 mm
01:10 26.5 °C 24.5 °C 1017.5 hPa SSW 1.6 km/h 4.8 km/h 89 % 0 mm
01:15 26.4 °C 24.4 °C 1017.5 hPa Calm   4.8 km/h 89 % 0 mm
01:20 26.3 °C 24.3 °C 1017.5 hPa SSW 1.6 km/h 4.8 km/h 89 % 0 mm
01:25 26.3 °C 24.3 °C 1017.5 hPa Calm   4.8 km/h 89 % 0 mm
01:30 26.3 °C 24.3 °C 1017.5 hPa Calm   4.8 km/h 89 % 0 mm
01:35 26.2 °C 24.4 °C 1017.5 hPa ESE 1.6 km/h 4.8 km/h 90 % 0 mm
01:40 26.2 °C 24.4 °C 1017.5 hPa SE 1.6 km/h 3.2 km/h 90 % 0 mm
01:45 26.1 °C 24.3 °C 1017.5 hPa Calm   3.2 km/h 90 % 0 mm
01:50 26 °C 24.2 °C 1017.5 hPa Calm   3.2 km/h 90 % 0 mm
01:55 25.8 °C 24 °C 1017.5 hPa Calm   1.6 km/h 90 % 0 mm
02:00 25.8 °C 24.2 °C 1017.5 hPa Calm   1.6 km/h 91 % 0 mm
02:05 25.7 °C 24.1 °C 1017.5 hPa Calm   1.6 km/h 91 % 0 mm
02:10 25.6 °C 24 °C 1017.5 hPa Calm   1.6 km/h 91 % 0 mm
02:15 25.4 °C 23.8 °C 1017.5 hPa Calm     91 % 0 mm
02:20 25.3 °C 23.7 °C 1017.5 hPa Calm     91 % 0 mm
02:25 25.2 °C 23.8 °C 1017.5 hPa Calm     92 % 0 mm
02:30 25.1 °C 23.7 °C 1017.5 hPa Calm     92 % 0 mm
02:35 25.1 °C 23.7 °C 1017.5 hPa Calm     92 % 0 mm
02:40 25 °C 23.8 °C 1017.5 hPa Calm     93 % 0 mm
02:45 25 °C 23.8 °C 1017.5 hPa Calm     93 % 0 mm
02:50 25 °C 24 °C 1017.5 hPa Calm     94 % 0 mm
02:55 24.9 °C 23.9 °C 1017.5 hPa Calm     94 % 0 mm
03:00 24.9 °C 23.9 °C 1017.5 hPa Calm     94 % 0 mm
03:05 24.8 °C 23.8 °C 1017.5 hPa Calm     94 % 0 mm
03:10 24.8 °C 23.8 °C 1017.5 hPa Calm     94 % 0 mm
03:15 24.7 °C 23.7 °C 1017.5 hPa Calm     94 % 0 mm
03:20 24.7 °C 23.7 °C 1017.5 hPa Calm     94 % 0 mm
03:25 24.7 °C 23.8 °C 1017.5 hPa Calm     95 % 0 mm
03:30 24.7 °C 23.8 °C 1017.5 hPa Calm     95 % 0 mm
03:35 24.7 °C 23.8 °C 1017.5 hPa Calm     95 % 0 mm
03:41 24.6 °C 23.7 °C 1017.5 hPa Calm     95 % 0 mm
03:46 24.6 °C 23.7 °C 1017.5 hPa Calm     95 % 0 mm
03:51 24.6 °C 23.7 °C 1017.8 hPa Calm     95 % 0 mm
03:56 24.6 °C 23.7 °C 1017.8 hPa Calm     95 % 0 mm
04:01 24.6 °C 23.9 °C 1017.8 hPa Calm     96 % 0 mm
04:06 24.6 °C 23.7 °C 1017.8 hPa Calm     95 % 0 mm
04:11 24.5 °C 23.8 °C 1017.8 hPa Calm     96 % 0 mm
04:16 24.5 °C 23.8 °C 1017.8 hPa Calm     96 % 0 mm
04:21 24.5 °C 23.8 °C 1017.8 hPa Calm     96 % 0 mm
04:26 24.4 °C 23.7 °C 1017.8 hPa Calm     96 % 0 mm
04:31 24.4 °C 23.7 °C 1017.8 hPa Calm     96 % 0 mm
04:36 24.3 °C 23.6 °C 1017.8 hPa Calm     96 % 0 mm
04:41 24.3 °C 23.6 °C 1017.8 hPa Calm     96 % 0 mm
04:46 24.3 °C 23.6 °C 1017.8 hPa Calm     96 % 0 mm
04:51 24.3 °C 23.6 °C 1017.8 hPa Calm     96 % 0 mm
04:56 24.3 °C 23.6 °C 1017.8 hPa Calm     96 % 0 mm
05:01 24.2 °C 23.5 °C 1018.2 hPa Calm     96 % 0 mm
05:06 24.2 °C 23.5 °C 1018.2 hPa Calm     96 % 0 mm
05:11 24.2 °C 23.5 °C 1018.2 hPa Calm     96 % 0 mm
05:16 24.2 °C 23.7 °C 1017.8 hPa Calm     97 % 0 mm
05:21 24.2 °C 23.7 °C 1018.2 hPa Calm     97 % 0 mm
05:26 24.2 °C 23.7 °C 1018.2 hPa Calm     97 % 0 mm
05:31 24.2 °C 23.7 °C 1018.2 hPa Calm     97 % 0 mm
05:37 24.1 °C 23.4 °C 1018.2 hPa Calm     96 % 0 mm
05:42 23.9 °C 23.2 °C 1018.2 hPa Calm     96 % 0 mm
05:47 23.9 °C 23.4 °C 1018.2 hPa Calm     97 % 0 mm
05:52 23.9 °C 23.4 °C 1018.2 hPa Calm     97 % 0 mm
05:57 23.9 °C 23.4 °C 1018.2 hPa Calm     97 % 0 mm
06:02 23.9 °C 23.4 °C 1018.5 hPa Calm     97 % 0 mm
06:07 23.8 °C 23.3 °C 1018.5 hPa Calm     97 % 0 mm
06:12 23.9 °C 23.4 °C 1018.5 hPa Calm     97 % 0 mm
06:17 24 °C 23.5 °C 1018.5 hPa Calm     97 % 0 mm
06:22 24.1 °C 23.6 °C 1018.5 hPa Calm     97 % 0 mm
06:27 24.2 °C 23.7 °C 1018.8 hPa Calm   1.6 km/h 97 % 0 mm
06:32 24.2 °C 23.7 °C 1018.8 hPa Calm   1.6 km/h 97 % 0 mm
06:37 24.2 °C 23.7 °C 1018.8 hPa Calm   1.6 km/h 97 % 0 mm
06:42 24.2 °C 23.7 °C 1018.8 hPa Calm   1.6 km/h 97 % 0 mm
06:47 24.2 °C 23.7 °C 1018.8 hPa Calm   1.6 km/h 97 % 0 mm
06:52 24.3 °C 23.8 °C 1018.8 hPa Calm   1.6 km/h 97 % 0 mm
06:57 24.3 °C 23.8 °C 1018.8 hPa Calm   1.6 km/h 97 % 0 mm
07:02 24.3 °C 23.8 °C 1019.2 hPa Calm   3.2 km/h 97 % 0 mm
07:07 24.4 °C 23.9 °C 1019.2 hPa Calm   3.2 km/h 97 % 0 mm
07:12 24.4 °C 23.9 °C 1019.2 hPa Calm   3.2 km/h 97 % 0 mm
07:17 24.6 °C 24.1 °C 1019.2 hPa Calm   1.6 km/h 97 % 0 mm
07:22 25 °C 24.5 °C 1019.2 hPa Calm     97 % 0 mm
07:27 25.5 °C 25 °C 1019.2 hPa Calm     97 % 0 mm
07:32 25.9 °C 25.4 °C 1019.2 hPa Calm   1.6 km/h 97 % 0 mm
07:37 26.2 °C 25.5 °C 1019.2 hPa Calm   1.6 km/h 96 % 0 mm
07:42 26.3 °C 25.4 °C 1019.2 hPa Calm   1.6 km/h 95 % 0 mm
07:47 26.6 °C 25.7 °C 1019.5 hPa Calm   1.6 km/h 95 % 0 mm
07:52 27 °C 26.1 °C 1019.5 hPa Calm   1.6 km/h 95 % 0 mm
07:57 27.3 °C 26.1 °C 1019.5 hPa Calm   1.6 km/h 93 % 0 mm
08:02 27.6 °C 26 °C 1019.5 hPa Calm   1.6 km/h 91 % 0 mm
08:07 27.9 °C 26.1 °C 1019.9 hPa Calm   1.6 km/h 90 % 0 mm
08:12 28.4 °C 26.2 °C 1019.9 hPa Calm     88 % 0 mm
08:17 28.7 °C 26.1 °C 1019.9 hPa Calm     86 % 0 mm
08:22 28.9 °C 25.9 °C 1019.9 hPa Calm     84 % 0 mm
08:27 29.2 °C 26 °C 1019.9 hPa Calm     83 % 0 mm
08:32 29.6 °C 26.2 °C 1019.9 hPa Calm     82 % 0 mm
08:37 29.9 °C 26.3 °C 1019.9 hPa Calm     81 % 0 mm
08:42 30.4 °C 26.3 °C 1019.9 hPa Calm     79 % 0 mm
08:47 30.6 °C 26.5 °C 1020.2 hPa Calm     79 % 0 mm
08:50 30.9 °C 26.8 °C 1019.9 hPa Calm     79 % 0 mm
08:55 31.4 °C 26.7 °C 1019.9 hPa Calm     76 % 0 mm
09:00 31.8 °C 27 °C 1019.9 hPa Calm     76 % 0 mm
09:05 31.7 °C 26.5 °C 1019.9 hPa Calm     74 % 0 mm
09:10 31.6 °C 27.1 °C 1019.9 hPa Calm   1.6 km/h 77 % 0 mm
09:15 31.4 °C 26.9 °C 1019.9 hPa Calm   4.8 km/h 77 % 0 mm
09:20 31.4 °C 26.9 °C 1019.9 hPa WNW 3.2 km/h 4.8 km/h 77 % 0 mm
09:25 31.6 °C 27.5 °C 1019.9 hPa Calm   4.8 km/h 79 % 0 mm
09:30 31.7 °C 26.9 °C 1019.9 hPa SE 4.8 km/h 4.8 km/h 76 % 0 mm
09:35 31.4 °C 26.4 °C 1019.9 hPa ESE 1.6 km/h 6.4 km/h 75 % 0 mm
09:40 31.3 °C 27 °C 1019.9 hPa Calm   6.4 km/h 78 % 0 mm
09:45 31.5 °C 26.5 °C 1019.9 hPa Calm   6.4 km/h 75 % 0 mm
09:50 31.9 °C 27.1 °C 1019.9 hPa Calm   4.8 km/h 76 % 0 mm
09:55 32.1 °C 26.6 °C 1019.9 hPa SSE 4.8 km/h 6.4 km/h 73 % 0 mm
10:00 32.1 °C 26.6 °C 1019.9 hPa Calm   8 km/h 73 % 0 mm
10:05 32.3 °C 26.6 °C 1020.2 hPa Calm   8 km/h 72 % 0 mm
10:10 32.8 °C 26.6 °C 1020.2 hPa West 1.6 km/h 8 km/h 70 % 0 mm
10:15 33.1 °C 26.6 °C 1019.9 hPa SSW 4.8 km/h 6.4 km/h 69 % 0 mm
10:20 32.7 °C 26 °C 1020.2 hPa SE 4.8 km/h 9.7 km/h 68 % 0 mm
10:25 32.4 °C 26.2 °C 1019.9 hPa South 3.2 km/h 9.7 km/h 70 % 0 mm
10:30 32.6 °C 26.4 °C 1019.9 hPa ESE 12.9 km/h 12.9 km/h 70 % 0 mm
10:35 32.7 °C 26.5 °C 1020.2 hPa SE 1.6 km/h 12.9 km/h 70 % 0 mm
10:40 32.7 °C 27 °C 1019.9 hPa South 3.2 km/h 12.9 km/h 72 % 0 mm
10:45 32.7 °C 26.3 °C 1019.9 hPa South 3.2 km/h 12.9 km/h 69 % 0 mm
10:50 32.6 °C 25.7 °C 1019.9 hPa SSE 3.2 km/h 9.7 km/h 67 % 0 mm
10:55 32.4 °C 26 °C 1019.9 hPa Calm   9.7 km/h 69 % 0 mm
11:00 32.8 °C 26.6 °C 1019.9 hPa SE 3.2 km/h 9.7 km/h 70 % 0 mm
11:05 33 °C 26 °C 1019.9 hPa NW 1.6 km/h 8 km/h 67 % 0 mm
11:10 33.2 °C 26.2 °C 1019.9 hPa SSW 4.8 km/h 8 km/h 67 % 0 mm
11:15 33.2 °C 26 °C 1019.9 hPa SSW 3.2 km/h 8 km/h 66 % 0 mm
11:20 32.7 °C 25.5 °C 1019.9 hPa SSE 1.6 km/h 8 km/h 66 % 0 mm
11:25 32.7 °C 26 °C 1019.9 hPa SSW 1.6 km/h 8 km/h 68 % 0 mm
11:30 32.8 °C 25.9 °C 1019.9 hPa ESE 4.8 km/h 6.4 km/h 67 % 0 mm
11:35 32.9 °C 26.2 °C 1019.9 hPa Calm   6.4 km/h 68 % 0 mm
11:40 33.3 °C 26.6 °C 1019.9 hPa Calm   6.4 km/h 68 % 0 mm
11:45 33.6 °C 26.6 °C 1019.9 hPa ESE 1.6 km/h 6.4 km/h 67 % 0 mm
11:50 34.1 °C 27.6 °C 1019.9 hPa SSE 1.6 km/h 4.8 km/h 69 % 0 mm
11:55 34.3 °C 26 °C 1019.9 hPa SSW 3.2 km/h 9.7 km/h 62 % 0 mm
12:00 34.3 °C 25.4 °C 1019.9 hPa ESE 8 km/h 9.7 km/h 60 % 0 mm
12:05 34 °C 25.4 °C 1019.9 hPa East 4.8 km/h 9.7 km/h 61 % 0 mm
12:10 33.9 °C 25.9 °C 1019.9 hPa Calm   9.7 km/h 63 % 0 mm
12:15 34 °C 25.7 °C 1019.5 hPa WNW 1.6 km/h 8 km/h 62 % 0 mm
12:20 33.7 °C 25.4 °C 1019.5 hPa NW 4.8 km/h 6.4 km/h 62 % 0 mm
12:21 33.6 °C 25.3 °C 1019.5 hPa West 1.6 km/h 6.4 km/h 62 % 0 mm
12:26 33.4 °C 25.4 °C 1019.5 hPa Calm   8 km/h 63 % 0 mm
12:31 33.6 °C 25.8 °C 1019.5 hPa West 1.6 km/h 8 km/h 64 % 0 mm
12:36 33.7 °C 25.4 °C 1019.5 hPa SSW 1.6 km/h 8 km/h 62 % 0 mm
12:41 33.8 °C 25.2 °C 1019.5 hPa NNW 3.2 km/h 4.8 km/h 61 % 0 mm
12:46 33.8 °C 24.9 °C 1019.5 hPa NW 1.6 km/h 4.8 km/h 60 % 0 mm
12:51 33.8 °C 25.2 °C 1019.5 hPa Calm   6.4 km/h 61 % 0 mm
12:56 34.2 °C 26.7 °C 1019.2 hPa East 6.4 km/h 6.4 km/h 65 % 0 mm
13:01 34.4 °C 24.9 °C 1019.2 hPa East 3.2 km/h 8 km/h 58 % 0 mm
13:06 34.7 °C 24.6 °C 1019.2 hPa Calm   8 km/h 56 % 0 mm
13:11 34.7 °C 24.9 °C 1019.2 hPa North 4.8 km/h 8 km/h 57 % 0 mm
13:16 34.3 °C 25.1 °C 1019.2 hPa North 6.4 km/h 6.4 km/h 59 % 0 mm
13:21 34.2 °C 24.8 °C 1018.8 hPa Calm   6.4 km/h 58 % 0 mm
13:26 34.2 °C 25 °C 1018.8 hPa Calm   6.4 km/h 59 % 0 mm
13:31 34.4 °C 24.9 °C 1018.8 hPa Calm   6.4 km/h 58 % 0 mm
13:36 34.9 °C 25.7 °C 1018.8 hPa Calm   4.8 km/h 59 % 0 mm
13:41 35.4 °C 25.6 °C 1018.8 hPa SSW 1.6 km/h 4.8 km/h 57 % 0 mm
13:46 35.4 °C 24.7 °C 1018.8 hPa SSW 1.6 km/h 9.7 km/h 54 % 0 mm
13:51 34.8 °C 24.7 °C 1018.5 hPa Calm   9.7 km/h 56 % 0 mm
13:56 34.7 °C 24.6 °C 1018.5 hPa SE 3.2 km/h 9.7 km/h 56 % 0 mm
14:01 35 °C 26.1 °C 1018.2 hPa Calm   8 km/h 60 % 0 mm
14:06 35.6 °C 26.1 °C 1018.2 hPa SSE 6.4 km/h 6.4 km/h 58 % 0 mm
14:11 35.3 °C 24.3 °C 1018.2 hPa Calm   6.4 km/h 53 % 0 mm
14:16 35.3 °C 24.6 °C 1018.2 hPa Calm   6.4 km/h 54 % 0 mm
14:21 35.5 °C 25.4 °C 1018.2 hPa NNW 1.6 km/h 6.4 km/h 56 % 0 mm
14:26 35.6 °C 24.2 °C 1018.2 hPa ENE 4.8 km/h 4.8 km/h 52 % 0 mm
14:31 35.2 °C 24.2 °C 1018.2 hPa SE 1.6 km/h 8 km/h 53 % 0 mm
14:36 35.2 °C 23.9 °C 1017.8 hPa Calm   8 km/h 52 % 0 mm
14:41 35.7 °C 25.9 °C 1017.8 hPa ENE 3.2 km/h 8 km/h 57 % 0 mm
14:46 35.9 °C 25.4 °C 1017.8 hPa Calm   8 km/h 55 % 0 mm
14:51 36.1 °C 24.4 °C 1017.8 hPa ENE 1.6 km/h 8 km/h 51 % 0 mm
14:56 36.2 °C 24.4 °C 1017.8 hPa ESE 11.3 km/h 11.3 km/h 51 % 0 mm
15:02 36.1 °C 24.7 °C 1017.8 hPa East 6.4 km/h 14.5 km/h 52 % 0 mm
15:07 35.9 °C 25.4 °C 1017.8 hPa ESE 4.8 km/h 14.5 km/h 55 % 0 mm
15:12 35.3 °C 25.2 °C 1017.5 hPa SE 8 km/h 14.5 km/h 56 % 0 mm
15:17 34.7 °C 25.2 °C 1017.5 hPa SE 9.7 km/h 14.5 km/h 58 % 0 mm
15:22 34.2 °C 25 °C 1017.5 hPa ENE 4.8 km/h 14.5 km/h 59 % 0 mm
15:27 34.1 °C 25.2 °C 1017.5 hPa ESE 4.8 km/h 14.5 km/h 60 % 0 mm
15:32 33.9 °C 25.6 °C 1017.5 hPa SE 4.8 km/h 12.9 km/h 62 % 0 mm
15:37 33.6 °C 25.3 °C 1017.5 hPa SE 9.7 km/h 14.5 km/h 62 % 0 mm
15:42 33.3 °C 25.6 °C 1017.5 hPa East 12.9 km/h 14.5 km/h 64 % 0 mm
15:47 33.3 °C 25.8 °C 1017.5 hPa SE 6.4 km/h 14.5 km/h 65 % 0 mm
15:52 33.3 °C 25.3 °C 1017.5 hPa SE 4.8 km/h 14.5 km/h 63 % 0 mm
15:57 33.2 °C 25.2 °C 1017.5 hPa SSE 4.8 km/h 14.5 km/h 63 % 0 mm
16:02 33.1 °C 25.4 °C 1017.5 hPa East 11.3 km/h 14.5 km/h 64 % 0 mm
16:07 32.7 °C 25.3 °C 1017.5 hPa SW 6.4 km/h 17.7 km/h 65 % 0 mm
16:12 32.4 °C 25.5 °C 1017.5 hPa SE 12.9 km/h 17.7 km/h 67 % 0 mm
16:17 32.1 °C 24.9 °C 1017.5 hPa SSE 17.7 km/h 22.5 km/h 66 % 0 mm
16:22 31.8 °C 24.9 °C 1017.2 hPa SE 12.9 km/h 22.5 km/h 67 % 0 mm
16:27 31.8 °C 25.4 °C 1017.2 hPa SSE 4.8 km/h 22.5 km/h 69 % 0 mm
16:32 31.8 °C 24.7 °C 1017.5 hPa SE 8 km/h 20.9 km/h 66 % 0 mm
16:37 31.6 °C 24.5 °C 1017.5 hPa SSW 9.7 km/h 17.7 km/h 66 % 0 mm
16:42 31.4 °C 24.3 °C 1017.2 hPa SSE 9.7 km/h 17.7 km/h 66 % 0 mm
16:47 31.4 °C 24.3 °C 1017.2 hPa South 6.4 km/h 16.1 km/h 66 % 0 mm
16:52 31.4 °C 24.5 °C 1017.2 hPa SSW 8 km/h 16.1 km/h 67 % 0 mm
16:57 31.4 °C 24.5 °C 1017.2 hPa SSE 6.4 km/h 16.1 km/h 67 % 0 mm
17:02 31.5 °C 24.6 °C 1017.2 hPa South 3.2 km/h 14.5 km/h 67 % 0 mm
17:07 31.6 °C 24.5 °C 1017.2 hPa WSW 6.4 km/h 12.9 km/h 66 % 0 mm
17:12 31.4 °C 24 °C 1017.2 hPa South 6.4 km/h 12.9 km/h 65 % 0 mm
17:17 31.4 °C 24.3 °C 1017.2 hPa SSW 4.8 km/h 12.9 km/h 66 % 0 mm
17:22 31.5 °C 24.4 °C 1017.2 hPa SSE 11.3 km/h 12.9 km/h 66 % 0 mm
17:27 31.6 °C 24.2 °C 1016.8 hPa SSW 4.8 km/h 11.3 km/h 65 % 0 mm
17:32 31.8 °C 24.7 °C 1016.8 hPa SE 6.4 km/h 12.9 km/h 66 % 0 mm
17:37 32.2 °C 24.8 °C 1016.8 hPa SSE 9.7 km/h 12.9 km/h 65 % 0 mm
17:42 32.3 °C 24.9 °C 1016.8 hPa South 9.7 km/h 14.5 km/h 65 % 0 mm
17:47 32.5 °C 24.8 °C 1016.8 hPa SSE 6.4 km/h 14.5 km/h 64 % 0 mm
17:52 32.6 °C 24.9 °C 1016.8 hPa ESE 4.8 km/h 14.5 km/h 64 % 0 mm
17:57 32.7 °C 25 °C 1016.8 hPa East 9.7 km/h 12.9 km/h 64 % 0 mm
18:02 32.9 °C 25.2 °C 1016.8 hPa SSW 11.3 km/h 14.5 km/h 64 % 0 mm
18:07 32.9 °C 24.9 °C 1016.8 hPa South 8 km/h 14.5 km/h 63 % 0 mm
18:12 32.8 °C 25.1 °C 1016.8 hPa SSE 8 km/h 14.5 km/h 64 % 0 mm
18:17 32.7 °C 25 °C 1016.8 hPa ESE 9.7 km/h 14.5 km/h 64 % 0 mm
18:22 32.8 °C 25.1 °C 1016.8 hPa SSE 4.8 km/h 14.5 km/h 64 % 0 mm
18:27 32.9 °C 25.2 °C 1016.8 hPa SSE 6.4 km/h 11.3 km/h 64 % 0 mm
18:32 32.9 °C 25.2 °C 1016.5 hPa SE 9.7 km/h 11.3 km/h 64 % 0 mm
18:37 33 °C 25.3 °C 1016.8 hPa South 8 km/h 11.3 km/h 64 % 0 mm
18:42 33 °C 25.3 °C 1016.8 hPa SSW 6.4 km/h 11.3 km/h 64 % 0 mm
18:47 33 °C 25 °C 1016.8 hPa SE 4.8 km/h 11.3 km/h 63 % 0 mm
18:52 32.9 °C 24.9 °C 1016.8 hPa SSE 6.4 km/h 12.9 km/h 63 % 0 mm
18:57 32.9 °C 24.9 °C 1016.8 hPa SSE 12.9 km/h 12.9 km/h 63 % 0 mm
19:02 32.9 °C 25.2 °C 1016.5 hPa SE 4.8 km/h 12.9 km/h 64 % 0 mm
19:07 32.8 °C 25.1 °C 1016.8 hPa South 4.8 km/h 12.9 km/h 64 % 0 mm
19:12 32.8 °C 25.1 °C 1016.5 hPa South 4.8 km/h 14.5 km/h 64 % 0 mm
19:17 32.7 °C 25 °C 1016.5 hPa SSE 8 km/h 14.5 km/h 64 % 0 mm
19:22 32.7 °C 25 °C 1016.5 hPa South 9.7 km/h 14.5 km/h 64 % 0 mm
19:27 32.5 °C 25.1 °C 1016.5 hPa SSW 3.2 km/h 14.5 km/h 65 % 0 mm
19:32 32.3 °C 24.9 °C 1016.5 hPa SE 6.4 km/h 14.5 km/h 65 % 0 mm
19:37 32.1 °C 24.9 °C 1016.5 hPa ESE 8 km/h 12.9 km/h 66 % 0 mm
19:42 32 °C 25.1 °C 1016.8 hPa SSE 6.4 km/h 12.9 km/h 67 % 0 mm
19:47 31.9 °C 25 °C 1016.8 hPa SSE 1.6 km/h 12.9 km/h 67 % 0 mm
19:52 31.8 °C 25.2 °C 1016.8 hPa SE 4.8 km/h 11.3 km/h 68 % 0 mm
19:57 31.7 °C 25.1 °C 1016.8 hPa SE 6.4 km/h 11.3 km/h 68 % 0 mm
19:59 31.6 °C 25 °C 1016.5 hPa ESE 3.2 km/h 11.3 km/h 68 % 0 mm
20:04 31.5 °C 25.1 °C 1016.8 hPa SE 4.8 km/h 12.9 km/h 69 % 0 mm
20:09 31.4 °C 25.3 °C 1016.8 hPa SSW 3.2 km/h 12.9 km/h 70 % 0 mm
20:14 31.3 °C 25.4 °C 1016.8 hPa ESE 4.8 km/h 12.9 km/h 71 % 0 mm
20:19 31.2 °C 25.3 °C 1016.5 hPa SSE 3.2 km/h 11.3 km/h 71 % 0 mm
20:24 31.1 °C 25.5 °C 1016.5 hPa SSW 4.8 km/h 9.7 km/h 72 % 0 mm
20:29 31 °C 25.4 °C 1016.5 hPa SE 1.6 km/h 8 km/h 72 % 0 mm
20:34 30.9 °C 25.5 °C 1016.5 hPa SSE 3.2 km/h 8 km/h 73 % 0 mm
20:39 30.8 °C 25.6 °C 1016.5 hPa SSE 1.6 km/h 8 km/h 74 % 0 mm
20:44 30.6 °C 25.7 °C 1016.5 hPa SE 3.2 km/h 6.4 km/h 75 % 0 mm
20:49 30.5 °C 25.6 °C 1016.8 hPa Calm   6.4 km/h 75 % 0 mm
20:54 30.4 °C 25.7 °C 1016.8 hPa Calm   6.4 km/h 76 % 0 mm
20:59 30.3 °C 25.6 °C 1016.8 hPa Calm   4.8 km/h 76 % 0 mm
21:04 30.4 °C 25.7 °C 1016.5 hPa ESE 3.2 km/h 4.8 km/h 76 % 0 mm
21:09 30.4 °C 25.7 °C 1016.8 hPa East 3.2 km/h 6.4 km/h 76 % 0 mm
21:14 30.3 °C 25.6 °C 1016.8 hPa Calm   6.4 km/h 76 % 0 mm
21:19 30.3 °C 25.6 °C 1016.8 hPa Calm   6.4 km/h 76 % 0 mm
21:24 30.2 °C 25.5 °C 1016.8 hPa ESE 3.2 km/h 6.4 km/h 76 % 0 mm
21:29 30.2 °C 25.7 °C 1017.2 hPa ESE 1.6 km/h 4.8 km/h 77 % 0 mm
21:34 30.1 °C 25.6 °C 1017.2 hPa ESE 3.2 km/h 6.4 km/h 77 % 0 mm
21:39 30.1 °C 25.6 °C 1017.2 hPa SE 3.2 km/h 6.4 km/h 77 % 0 mm
21:44 30.1 °C 25.8 °C 1017.2 hPa Calm   8 km/h 78 % 0 mm
21:49 29.9 °C 25.6 °C 1017.2 hPa Calm   8 km/h 78 % 0 mm
21:54 29.9 °C 25.6 °C 1017.2 hPa Calm   8 km/h 78 % 0 mm
21:59 29.8 °C 25.5 °C 1017.2 hPa Calm   4.8 km/h 78 % 0 mm
22:04 29.8 °C 25.5 °C 1017.2 hPa ENE 3.2 km/h 4.8 km/h 78 % 0 mm
22:09 29.8 °C 25.5 °C 1017.2 hPa Calm   3.2 km/h 78 % 0 mm
22:14 29.7 °C 25.7 °C 1017.2 hPa Calm   3.2 km/h 79 % 0 mm
22:19 29.6 °C 25.6 °C 1017.2 hPa SSE 3.2 km/h 3.2 km/h 79 % 0 mm
22:24 29.6 °C 25.6 °C 1017.2 hPa SSE 1.6 km/h 4.8 km/h 79 % 0 mm
22:29 29.5 °C 25.7 °C 1017.2 hPa South 1.6 km/h 6.4 km/h 80 % 0 mm
22:35 29.4 °C 25.6 °C 1017.2 hPa SSE 3.2 km/h 6.4 km/h 80 % 0 mm
22:40 29.4 °C 25.6 °C 1017.5 hPa SSE 1.6 km/h 11.3 km/h 80 % 0 mm
22:45 29.4 °C 25.6 °C 1017.5 hPa SE 6.4 km/h 11.3 km/h 80 % 0 mm
22:50 29.4 °C 25.8 °C 1017.5 hPa SSE 1.6 km/h 11.3 km/h 81 % 0 mm
22:55 29.3 °C 25.7 °C 1017.5 hPa SSE 6.4 km/h 9.7 km/h 81 % 0 mm
23:00 29.3 °C 25.7 °C 1017.5 hPa SSE 3.2 km/h 9.7 km/h 81 % 0 mm
23:05 29.2 °C 25.6 °C 1017.5 hPa South 4.8 km/h 8 km/h 81 % 0 mm
23:10 29.2 °C 25.8 °C 1017.5 hPa SSW 3.2 km/h 8 km/h 82 % 0 mm
23:15 29.1 °C 25.7 °C 1017.5 hPa SSE 1.6 km/h 8 km/h 82 % 0 mm
23:20 29 °C 25.6 °C 1017.5 hPa South 3.2 km/h 8 km/h 82 % 0 mm
23:25 28.9 °C 25.7 °C 1017.5 hPa SSE 3.2 km/h 6.4 km/h 83 % 0 mm
23:30 28.9 °C 25.7 °C 1017.5 hPa South 1.6 km/h 6.4 km/h 83 % 0 mm
23:35 28.8 °C 25.6 °C 1017.8 hPa SSE 3.2 km/h 4.8 km/h 83 % 0 mm
23:40 28.8 °C 25.8 °C 1017.8 hPa Calm   4.8 km/h 84 % 0 mm
23:41 28.8 °C 25.8 °C 1017.8 hPa SSW 1.6 km/h 4.8 km/h 84 % 0 mm
23:46 28.7 °C 25.7 °C 1017.8 hPa Calm   4.8 km/h 84 % 0 mm
23:51 28.6 °C 25.6 °C 1017.8 hPa SSE 3.2 km/h 4.8 km/h 84 % 0 mm
23:56 28.6 °C 25.6 °C 1017.8 hPa SSE 1.6 km/h 4.8 km/h 84 % 0 mm
Spring, Texas: Villages of Bridgestone
Compliments of Weather Underground - 2.75 mb

Script developed by  Jim McMurry - jmcmurry@mwt.net Adapted for the template by  Wim van der Kuil - Leuven-Template.eu

You find our weather info also at:

UK Metoffice

WeatherCloud

Weather Underground

Mid-South Weather Network

AWEKAS

Citizen Weather Observer Program (CWOP)

HAMweather, WeatherForYou, PWS Weather

Equipment we use:

Weather-station
Davis Vantage Vue

Weather-program
Meteohub

Weather-server
Debian 7.9 x86 (Guest)

Provider
DreamHost

Davis Vantage Vue

Meteohub

Debian 7.9 x86 (Guest)

DreamHost